Time;durP1;ratioP1;P1;durP2;ratioP2;P2;SDS_P1;SDS_P2;PMS_P1;PMS_P2;Temp;Humidity;BMP_temperature;BMP_pressure;BME280_temperature;BME280_humidity;BME280_pressure;Samples;Min_cycle;Max_cycle;Signal;HPM_P1;HPM_P2
2020/01/09 00:00:50;;;;;;;3.47;3.17;;;;;;;19.29;40.42;101463.13;;;;-53
2020/01/09 00:03:50;;;;;;;3.21;2.91;;;;;;;19.28;40.48;101462.95;;;;-53
2020/01/09 00:06:52;;;;;;;3.11;2.81;;;;;;;19.27;40.46;101460.25;;;;-54
2020/01/09 00:09:59;;;;;;;3.31;3.01;;;;;;;19.24;40.52;101462.03;;;;-53
2020/01/09 00:12:53;;;;;;;3.25;2.95;;;;;;;19.23;40.51;101459.34;;;;-53
2020/01/09 00:15:52;;;;;;;3.27;2.97;;;;;;;19.22;40.54;101461.72;;;;-54
2020/01/09 00:18:51;;;;;;;3.45;3.15;;;;;;;19.20;40.50;101451.89;;;;-53
2020/01/09 00:21:50;;;;;;;3.34;3.00;;;;;;;19.20;40.51;101457.27;;;;-54
2020/01/09 00:24:50;;;;;;;3.32;2.95;;;;;;;19.18;40.55;101451.03;;;;-54
2020/01/09 00:27:50;;;;;;;3.30;3.00;;;;;;;19.18;40.56;101451.38;;;;-53
2020/01/09 00:30:50;;;;;;;3.11;2.84;;;;;;;19.16;40.50;101450.80;;;;-53
2020/01/09 00:33:50;;;;;;;3.28;2.99;;;;;;;19.13;40.59;101443.03;;;;-53
2020/01/09 00:36:50;;;;;;;3.19;2.95;;;;;;;19.13;40.60;101443.75;;;;-53
2020/01/09 00:39:50;;;;;;;3.10;2.76;;;;;;;19.11;40.59;101443.37;;;;-54
2020/01/09 00:42:50;;;;;;;3.05;2.75;;;;;;;19.11;40.56;101443.77;;;;-53
2020/01/09 00:45:50;;;;;;;3.24;2.94;;;;;;;19.10;40.58;101441.03;;;;-53
2020/01/09 00:48:50;;;;;;;3.27;2.97;;;;;;;19.08;40.61;101429.41;;;;-53
2020/01/09 00:51:50;;;;;;;3.12;2.82;;;;;;;19.07;40.63;101433.08;;;;-54
2020/01/09 00:54:50;;;;;;;3.34;3.04;;;;;;;19.05;40.63;101433.96;;;;-53
2020/01/09 00:57:50;;;;;;;3.31;3.01;;;;;;;19.04;40.64;101431.05;;;;-53
2020/01/09 01:00:50;;;;;;;3.16;2.86;;;;;;;19.04;40.65;101428.59;;;;-53
2020/01/09 01:03:50;;;;;;;3.31;3.01;;;;;;;19.03;40.68;101433.06;;;;-54
2020/01/09 01:06:50;;;;;;;3.29;2.99;;;;;;;19.01;40.67;101427.85;;;;-52
2020/01/09 01:09:50;;;;;;;3.37;3.07;;;;;;;19.00;40.65;101423.77;;;;-53
2020/01/09 01:12:50;;;;;;;3.39;2.97;;;;;;;19.00;40.65;101410.93;;;;-54
2020/01/09 01:15:50;;;;;;;3.28;2.91;;;;;;;18.97;40.69;101405.84;;;;-53
2020/01/09 01:18:50;;;;;;;2.83;2.63;;;;;;;18.97;40.69;101413.59;;;;-54
2020/01/09 01:21:50;;;;;;;3.16;2.84;;;;;;;18.97;40.70;101421.40;;;;-54
2020/01/09 01:24:50;;;;;;;3.11;2.81;;;;;;;18.96;40.68;101428.42;;;;-53
2020/01/09 01:27:50;;;;;;;3.44;2.99;;;;;;;18.95;40.70;101433.49;;;;-54
2020/01/09 01:30:50;;;;;;;3.06;2.76;;;;;;;18.93;40.70;101431.20;;;;-54
2020/01/09 01:33:50;;;;;;;2.71;2.51;;;;;;;18.92;40.73;101431.80;;;;-53
2020/01/09 01:36:50;;;;;;;2.99;2.72;;;;;;;18.91;40.77;101427.72;;;;-53
2020/01/09 01:39:50;;;;;;;3.22;2.92;;;;;;;18.90;40.75;101419.02;;;;-53
2020/01/09 01:42:50;;;;;;;3.01;2.71;;;;;;;18.89;40.76;101416.32;;;;-53
2020/01/09 01:45:50;;;;;;;2.91;2.67;;;;;;;18.88;40.80;101408.62;;;;-53
2020/01/09 01:48:50;;;;;;;3.05;2.77;;;;;;;18.87;40.77;101414.19;;;;-53
2020/01/09 01:51:50;;;;;;;2.70;2.50;;;;;;;18.86;40.79;101415.97;;;;-53
2020/01/09 01:54:50;;;;;;;3.03;2.77;;;;;;;18.85;40.77;101410.78;;;;-53
2020/01/09 01:57:50;;;;;;;3.06;2.77;;;;;;;18.84;40.78;101411.33;;;;-53
2020/01/09 02:00:50;;;;;;;3.07;2.74;;;;;;;18.83;40.81;101399.48;;;;-53
2020/01/09 02:03:50;;;;;;;2.91;2.71;;;;;;;18.82;40.80;101398.14;;;;-52
2020/01/09 02:06:50;;;;;;;3.05;2.78;;;;;;;18.81;40.82;101402.27;;;;-53
2020/01/09 02:09:50;;;;;;;2.98;2.65;;;;;;;18.81;40.81;101400.71;;;;-53
2020/01/09 02:12:50;;;;;;;2.87;2.67;;;;;;;18.80;40.84;101400.02;;;;-54
2020/01/09 02:15:50;;;;;;;3.10;2.80;;;;;;;18.78;40.86;101394.27;;;;-53
2020/01/09 02:18:50;;;;;;;3.10;2.80;;;;;;;18.77;40.84;101386.29;;;;-54
2020/01/09 02:21:50;;;;;;;2.64;2.43;;;;;;;18.76;40.83;101384.33;;;;-53
2020/01/09 02:24:50;;;;;;;2.63;2.43;;;;;;;18.76;40.87;101379.52;;;;-53
2020/01/09 02:27:50;;;;;;;2.94;2.65;;;;;;;18.74;40.87;101376.73;;;;-53
2020/01/09 02:30:50;;;;;;;2.95;2.67;;;;;;;18.74;40.84;101370.20;;;;-53
2020/01/09 02:33:50;;;;;;;2.63;2.43;;;;;;;18.73;40.87;101364.06;;;;-53
2020/01/09 02:36:50;;;;;;;2.81;2.52;;;;;;;18.73;40.85;101350.62;;;;-54
2020/01/09 02:39:50;;;;;;;2.87;2.63;;;;;;;18.71;40.89;101344.08;;;;-53
2020/01/09 02:42:50;;;;;;;2.67;2.47;;;;;;;18.71;40.85;101336.33;;;;-53
2020/01/09 02:45:50;;;;;;;2.84;2.63;;;;;;;18.70;40.84;101332.64;;;;-53
2020/01/09 02:48:50;;;;;;;2.96;2.67;;;;;;;18.70;40.86;101328.11;;;;-53
2020/01/09 02:51:50;;;;;;;2.88;2.60;;;;;;;18.69;40.88;101329.34;;;;-53
2020/01/09 02:54:50;;;;;;;2.72;2.52;;;;;;;18.67;40.87;101326.70;;;;-52
2020/01/09 02:57:50;;;;;;;3.03;2.68;;;;;;;18.66;40.89;101325.98;;;;-53
2020/01/09 03:00:50;;;;;;;2.65;2.45;;;;;;;18.66;40.94;101318.44;;;;-53
2020/01/09 03:03:50;;;;;;;2.81;2.59;;;;;;;18.65;40.90;101311.84;;;;-53
2020/01/09 03:06:50;;;;;;;2.94;2.61;;;;;;;18.63;40.93;101299.86;;;;-53
2020/01/09 03:09:50;;;;;;;2.83;2.58;;;;;;;18.63;41.00;101304.14;;;;-53
2020/01/09 03:12:50;;;;;;;2.55;2.35;;;;;;;18.62;40.96;101299.62;;;;-53
2020/01/09 03:15:50;;;;;;;2.55;2.35;;;;;;;18.61;40.95;101291.80;;;;-53
2020/01/09 03:18:50;;;;;;;2.64;2.44;;;;;;;18.61;40.94;101305.08;;;;-53
2020/01/09 03:21:50;;;;;;;2.65;2.45;;;;;;;18.61;40.94;101302.63;;;;-53
2020/01/09 03:24:50;;;;;;;2.87;2.62;;;;;;;18.60;40.95;101307.30;;;;-53
2020/01/09 03:27:50;;;;;;;2.63;2.43;;;;;;;18.59;40.94;101302.22;;;;-53
2020/01/09 03:30:50;;;;;;;2.98;2.66;;;;;;;18.59;40.98;101298.49;;;;-53
2020/01/09 03:33:50;;;;;;;2.71;2.51;;;;;;;18.57;40.96;101296.91;;;;-54
2020/01/09 03:36:50;;;;;;;2.87;2.59;;;;;;;18.57;40.98;101291.23;;;;-53
2020/01/09 03:44:50;;;;;;;2.99;2.39;;;;;;;18.55;41.01;101270.02;;;;-53
2020/01/09 03:47:50;;;;;;;2.55;2.35;;;;;;;18.55;41.00;101272.59;;;;-53
2020/01/09 03:50:50;;;;;;;2.59;2.39;;;;;;;18.54;40.97;101270.86;;;;-54
2020/01/09 03:53:50;;;;;;;2.48;2.28;;;;;;;18.53;41.02;101265.11;;;;-53
2020/01/09 03:56:50;;;;;;;2.61;2.34;;;;;;;18.52;41.00;101258.75;;;;-53
2020/01/09 03:59:50;;;;;;;2.65;2.45;;;;;;;18.52;41.04;101258.08;;;;-53
2020/01/09 04:02:50;;;;;;;2.69;2.49;;;;;;;18.51;41.00;101245.36;;;;-53
2020/01/09 04:05:50;;;;;;;2.40;2.20;;;;;;;18.50;41.03;101242.95;;;;-53
2020/01/09 04:08:50;;;;;;;2.45;2.25;;;;;;;18.49;41.05;101234.53;;;;-53
2020/01/09 04:11:50;;;;;;;2.62;2.42;;;;;;;18.48;41.03;101234.63;;;;-53
2020/01/09 04:14:50;;;;;;;2.57;2.37;;;;;;;18.48;41.03;101229.51;;;;-54
2020/01/09 04:17:50;;;;;;;2.60;2.40;;;;;;;18.48;41.04;101233.02;;;;-53
2020/01/09 04:20:50;;;;;;;2.65;2.45;;;;;;;18.47;41.07;101226.53;;;;-53
2020/01/09 04:23:50;;;;;;;2.66;2.46;;;;;;;18.46;41.06;101223.03;;;;-53
2020/01/09 04:26:50;;;;;;;2.55;2.34;;;;;;;18.45;41.08;101222.97;;;;-54
2020/01/09 04:29:50;;;;;;;2.88;2.60;;;;;;;18.45;41.05;101216.60;;;;-54
2020/01/09 04:32:50;;;;;;;2.41;2.21;;;;;;;18.44;41.11;101208.02;;;;-53
2020/01/09 04:35:50;;;;;;;2.62;2.41;;;;;;;18.43;41.08;101201.55;;;;-53
2020/01/09 04:38:50;;;;;;;2.45;2.25;;;;;;;18.43;41.09;101199.36;;;;-54
2020/01/09 04:41:50;;;;;;;2.60;2.31;;;;;;;18.42;41.08;101195.13;;;;-53
2020/01/09 04:44:50;;;;;;;2.56;2.36;;;;;;;18.42;41.10;101193.13;;;;-53
2020/01/09 04:47:50;;;;;;;2.50;2.30;;;;;;;18.42;41.09;101188.11;;;;-54
2020/01/09 04:50:50;;;;;;;2.46;2.26;;;;;;;18.40;41.11;101185.14;;;;-53
2020/01/09 04:53:50;;;;;;;2.79;2.42;;;;;;;18.40;41.15;101181.28;;;;-51
2020/01/09 04:56:50;;;;;;;2.49;2.29;;;;;;;18.40;41.12;101172.77;;;;-52
2020/01/09 04:59:50;;;;;;;2.51;2.31;;;;;;;18.40;41.17;101166.47;;;;-51
2020/01/09 05:02:50;;;;;;;2.64;2.41;;;;;;;18.41;41.13;101162.02;;;;-51
2020/01/09 05:05:50;;;;;;;2.53;2.33;;;;;;;18.41;41.17;101159.50;;;;-52
2020/01/09 05:08:50;;;;;;;2.79;2.35;;;;;;;18.41;41.15;101156.66;;;;-52
2020/01/09 05:11:50;;;;;;;2.51;2.31;;;;;;;18.41;41.18;101152.47;;;;-51
2020/01/09 05:14:50;;;;;;;2.37;2.17;;;;;;;18.40;41.14;101151.70;;;;-51
2020/01/09 05:17:50;;;;;;;2.42;2.22;;;;;;;18.41;41.17;101149.98;;;;-52
2020/01/09 05:20:50;;;;;;;2.59;2.39;;;;;;;18.41;41.12;101146.47;;;;-51
2020/01/09 05:23:50;;;;;;;3.19;2.33;;;;;;;18.41;41.15;101147.23;;;;-52
2020/01/09 05:26:50;;;;;;;2.50;2.30;;;;;;;18.42;41.15;101148.69;;;;-52
2020/01/09 05:29:50;;;;;;;2.46;2.26;;;;;;;18.42;41.15;101142.44;;;;-51
2020/01/09 05:32:50;;;;;;;2.45;2.25;;;;;;;18.41;41.16;101133.53;;;;-51
2020/01/09 05:35:50;;;;;;;2.50;2.30;;;;;;;18.41;41.13;101134.09;;;;-51
2020/01/09 05:38:50;;;;;;;2.50;2.30;;;;;;;18.42;41.18;101140.83;;;;-51
2020/01/09 05:41:50;;;;;;;2.38;2.18;;;;;;;18.41;41.16;101130.84;;;;-51
2020/01/09 05:44:50;;;;;;;2.55;2.35;;;;;;;18.42;41.17;101127.45;;;;-52
2020/01/09 05:47:50;;;;;;;4.85;3.09;;;;;;;18.23;43.01;101122.47;;;;-52
2020/01/09 05:50:50;;;;;;;4.84;3.14;;;;;;;18.13;43.61;101119.14;;;;-52
2020/01/09 05:53:50;;;;;;;4.61;3.01;;;;;;;18.03;44.04;101121.13;;;;-52
2020/01/09 05:56:50;;;;;;;3.97;3.37;;;;;;;18.06;43.73;101114.25;;;;-52
2020/01/09 05:59:50;;;;;;;5.15;3.00;;;;;;;18.13;43.26;101120.12;;;;-51
2020/01/09 06:02:50;;;;;;;4.30;2.95;;;;;;;18.17;43.11;101123.89;;;;-51
2020/01/09 06:05:50;;;;;;;3.17;2.86;;;;;;;18.21;42.93;101121.34;;;;-51
2020/01/09 06:08:50;;;;;;;3.61;2.80;;;;;;;18.22;42.74;101112.45;;;;-51
2020/01/09 06:11:50;;;;;;;3.22;2.57;;;;;;;18.23;42.61;101111.95;;;;-51
2020/01/09 06:14:50;;;;;;;2.93;2.56;;;;;;;18.25;42.49;101111.55;;;;-51
2020/01/09 06:17:50;;;;;;;3.32;2.51;;;;;;;18.24;42.38;101115.66;;;;-51
2020/01/09 06:20:50;;;;;;;2.68;2.48;;;;;;;18.25;42.31;101107.19;;;;-51
2020/01/09 06:23:50;;;;;;;3.50;2.49;;;;;;;18.26;42.26;101102.06;;;;-51
2020/01/09 06:26:50;;;;;;;3.92;2.58;;;;;;;18.27;42.13;101102.92;;;;-51
2020/01/09 06:29:50;;;;;;;2.72;2.51;;;;;;;18.27;42.10;101097.45;;;;-51
2020/01/09 06:32:50;;;;;;;3.51;2.61;;;;;;;18.27;42.11;101091.94;;;;-51
2020/01/09 06:35:50;;;;;;;3.11;2.43;;;;;;;18.27;42.02;101084.25;;;;-51
2020/01/09 06:38:50;;;;;;;2.92;2.43;;;;;;;18.26;41.96;101079.22;;;;-51
2020/01/09 06:41:50;;;;;;;3.06;2.35;;;;;;;18.27;41.97;101080.02;;;;-52
2020/01/09 06:44:50;;;;;;;3.30;2.39;;;;;;;18.26;41.96;101079.33;;;;-51
2020/01/09 06:47:50;;;;;;;3.01;2.37;;;;;;;18.26;41.92;101074.16;;;;-51
2020/01/09 06:50:50;;;;;;;3.05;2.45;;;;;;;18.26;41.88;101066.13;;;;-51
2020/01/09 06:53:50;;;;;;;2.60;2.40;;;;;;;18.25;41.88;101064.67;;;;-52
2020/01/09 06:56:50;;;;;;;2.81;2.20;;;;;;;18.25;41.87;101061.61;;;;-51
2020/01/09 06:59:50;;;;;;;3.66;2.38;;;;;;;18.26;41.84;101064.40;;;;-51
2020/01/09 07:02:50;;;;;;;2.59;2.39;;;;;;;18.25;41.81;101063.91;;;;-52
2020/01/09 07:05:50;;;;;;;3.51;2.23;;;;;;;18.26;41.87;101064.11;;;;-51
2020/01/09 07:08:50;;;;;;;2.77;2.34;;;;;;;18.27;41.81;101060.78;;;;-51
2020/01/09 07:11:50;;;;;;;2.44;2.20;;;;;;;18.28;41.78;101056.59;;;;-53
2020/01/09 07:14:50;;;;;;;2.89;2.37;;;;;;;18.30;41.78;101053.54;;;;-53
2020/01/09 07:17:50;;;;;;;2.69;2.33;;;;;;;18.33;41.72;101057.29;;;;-53
2020/01/09 07:20:50;;;;;;;2.61;2.39;;;;;;;18.37;41.64;101057.58;;;;-53
2020/01/09 07:23:50;;;;;;;3.83;2.49;;;;;;;18.39;41.67;101056.03;;;;-53
2020/01/09 07:26:50;;;;;;;2.83;2.39;;;;;;;18.43;41.65;101055.53;;;;-54
2020/01/09 07:29:50;;;;;;;2.61;2.31;;;;;;;18.46;41.62;101056.55;;;;-53
2020/01/09 07:32:50;;;;;;;2.37;2.14;;;;;;;18.51;41.61;101055.40;;;;-53
2020/01/09 07:35:50;;;;;;;3.25;2.28;;;;;;;18.54;41.62;101056.69;;;;-54
2020/01/09 07:38:50;;;;;;;3.31;2.20;;;;;;;18.57;41.60;101055.19;;;;-53
2020/01/09 07:41:50;;;;;;;3.19;2.16;;;;;;;18.65;42.65;101053.38;;;;-51
2020/01/09 07:44:50;;;;;;;3.76;2.20;;;;;;;18.69;42.83;101050.47;;;;-52
2020/01/09 07:47:50;;;;;;;4.27;2.39;;;;;;;18.73;42.96;101046.25;;;;-53
2020/01/09 07:50:50;;;;;;;3.05;2.21;;;;;;;18.77;42.78;101045.48;;;;-54
2020/01/09 07:53:50;;;;;;;3.25;2.16;;;;;;;18.82;42.72;101043.97;;;;-51
2020/01/09 07:56:50;;;;;;;2.99;1.98;;;;;;;18.87;42.62;101040.23;;;;-51
2020/01/09 07:59:50;;;;;;;5.36;2.35;;;;;;;18.94;43.07;101041.19;;;;-52
2020/01/09 08:02:50;;;;;;;2.66;2.28;;;;;;;18.97;42.79;101041.26;;;;-52
2020/01/09 08:05:50;;;;;;;3.15;2.42;;;;;;;19.02;42.82;101037.75;;;;-50
2020/01/09 08:08:50;;;;;;;2.35;2.15;;;;;;;19.07;42.91;101034.23;;;;-53
2020/01/09 08:11:50;;;;;;;4.45;2.07;;;;;;;19.11;42.96;101032.49;;;;-49
2020/01/09 08:14:50;;;;;;;2.69;2.28;;;;;;;19.15;42.40;101027.72;;;;-50
2020/01/09 08:17:50;;;;;;;4.05;2.23;;;;;;;19.21;42.59;101025.94;;;;-52
2020/01/09 08:20:50;;;;;;;2.51;2.20;;;;;;;19.22;42.04;101025.73;;;;-51
2020/01/09 08:23:50;;;;;;;3.46;2.20;;;;;;;19.24;41.88;101024.82;;;;-52
2020/01/09 08:26:50;;;;;;;2.31;2.11;;;;;;;19.25;41.72;101015.61;;;;-51
2020/01/09 08:29:50;;;;;;;2.25;2.05;;;;;;;19.27;41.68;101006.91;;;;-51
2020/01/09 08:32:50;;;;;;;2.48;2.28;;;;;;;19.28;41.62;101005.02;;;;-52
2020/01/09 08:35:50;;;;;;;2.40;2.20;;;;;;;19.30;41.54;101005.12;;;;-52
2020/01/09 08:38:50;;;;;;;2.41;2.21;;;;;;;19.32;41.50;100996.95;;;;-52
2020/01/09 08:41:50;;;;;;;2.42;2.13;;;;;;;19.33;41.47;100990.38;;;;-51
2020/01/09 08:44:50;;;;;;;3.61;2.17;;;;;;;19.35;41.47;100985.89;;;;-51
2020/01/09 08:47:50;;;;;;;2.40;2.13;;;;;;;19.36;41.45;100978.14;;;;-51
2020/01/09 08:50:50;;;;;;;2.82;2.31;;;;;;;19.37;41.45;100975.73;;;;-51
2020/01/09 08:53:50;;;;;;;2.45;2.20;;;;;;;19.39;41.43;100977.67;;;;-51
2020/01/09 08:56:50;;;;;;;2.49;2.29;;;;;;;19.41;41.36;100978.64;;;;-51
2020/01/09 08:59:50;;;;;;;2.34;2.14;;;;;;;19.42;41.33;100978.52;;;;-51
2020/01/09 09:02:50;;;;;;;2.33;2.13;;;;;;;19.43;41.35;100977.01;;;;-51
2020/01/09 09:05:50;;;;;;;2.83;2.17;;;;;;;19.45;41.25;100982.64;;;;-51
2020/01/09 09:08:50;;;;;;;2.49;2.09;;;;;;;19.46;41.24;100983.77;;;;-51
2020/01/09 09:11:50;;;;;;;2.44;2.24;;;;;;;19.48;41.27;100986.72;;;;-52
2020/01/09 09:14:50;;;;;;;2.53;2.14;;;;;;;19.49;41.24;100985.53;;;;-51
2020/01/09 09:17:50;;;;;;;2.22;2.01;;;;;;;19.50;41.18;100983.74;;;;-51
2020/01/09 09:20:50;;;;;;;2.49;2.29;;;;;;;19.50;41.20;100975.21;;;;-52
2020/01/09 09:23:50;;;;;;;3.79;2.47;;;;;;;19.54;41.62;100972.13;;;;-50
2020/01/09 09:26:50;;;;;;;3.01;2.32;;;;;;;19.56;41.98;100972.34;;;;-51
2020/01/09 09:29:50;;;;;;;2.56;2.21;;;;;;;19.59;42.12;100970.98;;;;-49
2020/01/09 09:32:50;;;;;;;2.75;2.20;;;;;;;19.61;42.04;100967.53;;;;-51
2020/01/09 09:35:50;;;;;;;2.48;2.22;;;;;;;19.62;42.23;100965.23;;;;-49
2020/01/09 09:38:50;;;;;;;2.63;2.41;;;;;;;19.65;42.34;100970.47;;;;-50
2020/01/09 09:41:50;;;;;;;2.50;2.30;;;;;;;19.66;42.23;100970.73;;;;-50
2020/01/09 09:44:50;;;;;;;2.44;2.24;;;;;;;19.66;42.19;100969.41;;;;-51
2020/01/09 09:47:50;;;;;;;2.73;2.25;;;;;;;19.69;42.27;100968.34;;;;-52
2020/01/09 09:50:50;;;;;;;3.40;2.33;;;;;;;19.69;42.32;100964.20;;;;-50
2020/01/09 09:53:50;;;;;;;2.59;2.26;;;;;;;19.71;41.98;100961.24;;;;-52
2020/01/09 09:56:50;;;;;;;2.61;2.25;;;;;;;19.74;42.50;100960.03;;;;-52
2020/01/09 09:59:50;;;;;;;3.79;2.27;;;;;;;19.72;42.88;100951.72;;;;-50
2020/01/09 10:02:50;;;;;;;4.94;3.01;;;;;;;19.74;42.27;100951.61;;;;-51
2020/01/09 10:05:50;;;;;;;10.36;2.93;;;;;;;19.74;42.30;100944.11;;;;-51
2020/01/09 10:08:50;;;;;;;4.49;2.60;;;;;;;19.76;42.11;100943.68;;;;-51
2020/01/09 10:11:50;;;;;;;4.07;2.37;;;;;;;19.77;42.10;100943.48;;;;-50
2020/01/09 10:14:50;;;;;;;2.93;2.41;;;;;;;19.78;42.33;100935.16;;;;-51
2020/01/09 10:17:50;;;;;;;4.75;2.47;;;;;;;19.81;42.50;100934.70;;;;-50
2020/01/09 10:20:50;;;;;;;6.77;2.59;;;;;;;19.84;43.13;100927.99;;;;-52
2020/01/09 10:23:50;;;;;;;20.05;3.15;;;;;;;19.89;42.71;100922.20;;;;-49
2020/01/09 10:26:50;;;;;;;8.17;2.97;;;;;;;19.89;42.29;100920.98;;;;-53
2020/01/09 10:29:50;;;;;;;6.27;3.01;;;;;;;19.93;42.71;100914.33;;;;-51
2020/01/09 10:32:50;;;;;;;7.90;3.17;;;;;;;19.95;44.43;100908.37;;;;-54
2020/01/09 10:35:50;;;;;;;55.79;4.03;;;;;;;19.96;42.76;100906.41;;;;-52
2020/01/09 10:38:50;;;;;;;7.54;2.89;;;;;;;19.96;42.73;100901.06;;;;-51
2020/01/09 10:41:50;;;;;;;9.86;3.24;;;;;;;19.95;42.63;100902.39;;;;-51
2020/01/09 10:56:16;;;;;;;10.71;3.15;;;;;;;20.01;42.63;100877.14;;;;-46
2020/01/09 10:59:16;;;;;;;8.70;2.82;;;;;;;20.01;42.77;100876.13;;;;-47
2020/01/09 11:02:16;;;;;;;13.95;2.95;;;;;;;20.01;43.05;100880.22;;;;-49
2020/01/09 11:05:16;;;;;;;8.79;3.21;;;;;;;19.99;42.56;100876.20;;;;-50
2020/01/09 11:08:16;;;;;;;9.26;3.11;;;;;;;20.03;42.95;100869.62;;;;-47
2020/01/09 11:11:16;;;;;;;7.88;2.80;;;;;;;20.03;42.68;100857.39;;;;-50
2020/01/09 11:14:16;;;;;;;9.11;3.01;;;;;;;20.05;42.86;100849.10;;;;-51
2020/01/09 11:17:16;;;;;;;5.27;2.84;;;;;;;20.09;42.73;100842.21;;;;-50
2020/01/09 11:20:16;;;;;;;6.31;2.76;;;;;;;20.09;42.71;100838.02;;;;-51
2020/01/09 11:23:16;;;;;;;5.53;2.81;;;;;;;20.11;42.80;100835.61;;;;-55
2020/01/09 11:26:16;;;;;;;6.71;2.87;;;;;;;20.14;42.70;100834.91;;;;-48
2020/01/09 11:29:16;;;;;;;5.62;2.73;;;;;;;20.14;42.65;100824.52;;;;-53
2020/01/09 11:32:16;;;;;;;10.69;2.91;;;;;;;20.16;43.42;100817.50;;;;-57
2020/01/09 11:35:16;;;;;;;6.49;2.74;;;;;;;20.19;42.67;100814.25;;;;-57
2020/01/09 11:38:16;;;;;;;6.21;2.71;;;;;;;20.18;42.57;100810.69;;;;-55
2020/01/09 11:41:16;;;;;;;5.78;2.90;;;;;;;20.20;42.57;100801.49;;;;-51
2020/01/09 11:44:16;;;;;;;7.89;2.83;;;;;;;20.22;42.54;100796.22;;;;-55
2020/01/09 11:47:16;;;;;;;5.63;2.70;;;;;;;20.24;42.55;100790.27;;;;-56
2020/01/09 11:50:15;;;;;;;7.49;2.86;;;;;;;20.24;42.55;100780.67;;;;-49
2020/01/09 11:53:15;;;;;;;15.89;3.38;;;;;;;20.24;42.75;100773.94;;;;-59
2020/01/09 11:56:15;;;;;;;6.96;2.83;;;;;;;20.23;42.70;100767.65;;;;-48
2020/01/09 11:59:16;;;;;;;7.81;2.79;;;;;;;20.22;42.54;100762.00;;;;-55
2020/01/09 12:02:16;;;;;;;8.11;2.80;;;;;;;20.22;42.55;100760.56;;;;-54
2020/01/09 12:05:16;;;;;;;3.51;2.60;;;;;;;20.19;42.22;100755.56;;;;-54
2020/01/09 12:08:16;;;;;;;7.22;2.90;;;;;;;20.17;42.20;100750.53;;;;-54
2020/01/09 12:11:16;;;;;;;4.41;2.43;;;;;;;20.14;41.99;100748.98;;;;-54
2020/01/09 12:14:16;;;;;;;4.87;2.45;;;;;;;20.11;41.96;100741.30;;;;-54
2020/01/09 12:17:16;;;;;;;3.94;2.75;;;;;;;20.10;41.80;100735.89;;;;-54
2020/01/09 12:20:16;;;;;;;5.69;2.55;;;;;;;20.08;41.65;100726.81;;;;-54
2020/01/09 12:23:16;;;;;;;4.43;2.54;;;;;;;20.08;41.84;100726.58;;;;-53
2020/01/09 12:26:16;;;;;;;3.63;2.76;;;;;;;20.06;41.82;100725.98;;;;-54
2020/01/09 12:29:16;;;;;;;3.47;2.46;;;;;;;20.05;41.61;100719.13;;;;-55
2020/01/09 12:32:16;;;;;;;3.18;2.39;;;;;;;20.04;41.71;100719.34;;;;-54
2020/01/09 12:35:16;;;;;;;4.05;2.48;;;;;;;20.03;41.64;100716.02;;;;-54
2020/01/09 12:38:16;;;;;;;3.12;2.60;;;;;;;20.02;41.62;100713.66;;;;-54
2020/01/09 12:41:16;;;;;;;3.42;2.51;;;;;;;20.02;41.64;100707.52;;;;-54
2020/01/09 12:44:15;;;;;;;3.27;2.50;;;;;;;20.02;41.55;100706.19;;;;-54
2020/01/09 12:47:15;;;;;;;4.53;2.53;;;;;;;20.02;41.53;100704.27;;;;-54
2020/01/09 12:50:16;;;;;;;3.29;2.33;;;;;;;20.02;41.64;100699.53;;;;-54
2020/01/09 12:53:16;;;;;;;4.67;2.57;;;;;;;20.02;41.70;100687.63;;;;-58
2020/01/09 12:56:16;;;;;;;6.14;2.65;;;;;;;20.08;42.37;100683.31;;;;-56
2020/01/09 12:59:16;;;;;;;11.65;2.35;;;;;;;20.09;42.75;100681.19;;;;-56
2020/01/09 13:02:16;;;;;;;3.41;2.28;;;;;;;20.12;42.98;100673.01;;;;-50
2020/01/09 13:05:16;;;;;;;7.63;2.86;;;;;;;20.15;43.69;100671.91;;;;-48
2020/01/09 13:08:16;;;;;;;4.51;2.36;;;;;;;20.19;44.08;100668.19;;;;-48
2020/01/09 13:11:15;;;;;;;6.73;2.41;;;;;;;20.20;43.69;100666.15;;;;-49
2020/01/09 13:14:16;;;;;;;7.56;2.93;;;;;;;20.23;43.74;100663.71;;;;-48
2020/01/09 13:17:16;;;;;;;8.83;2.61;;;;;;;20.26;43.58;100665.75;;;;-45
2020/01/09 13:20:16;;;;;;;7.52;2.51;;;;;;;20.27;43.81;100659.19;;;;-45
2020/01/09 13:23:16;;;;;;;21.35;2.97;;;;;;;20.29;44.83;100660.25;;;;-57
2020/01/09 13:26:16;;;;;;;6.81;2.61;;;;;;;20.31;43.74;100653.56;;;;-49
2020/01/09 13:29:16;;;;;;;18.22;2.64;;;;;;;20.30;43.67;100650.97;;;;-49
2020/01/09 13:32:16;;;;;;;9.39;2.42;;;;;;;20.30;43.69;100647.37;;;;-47
2020/01/09 13:35:16;;;;;;;7.35;2.69;;;;;;;20.30;43.46;100650.60;;;;-47
2020/01/09 13:38:16;;;;;;;7.47;2.47;;;;;;;20.30;43.45;100650.40;;;;-45
2020/01/09 13:41:16;;;;;;;3.52;2.40;;;;;;;20.31;43.34;100644.64;;;;-48
2020/01/09 13:44:16;;;;;;;5.89;2.41;;;;;;;20.30;43.02;100642.34;;;;-50
2020/01/09 13:47:15;;;;;;;7.35;2.59;;;;;;;20.30;43.21;100645.59;;;;-50
2020/01/09 13:50:15;;;;;;;5.29;2.39;;;;;;;20.29;43.02;100646.16;;;;-51
2020/01/09 13:53:16;;;;;;;5.74;2.26;;;;;;;20.30;43.05;100644.56;;;;-45
2020/01/09 13:56:15;;;;;;;6.45;2.56;;;;;;;20.29;43.05;100644.37;;;;-45
2020/01/09 13:59:16;;;;;;;7.67;2.23;;;;;;;20.30;43.20;100638.99;;;;-48
2020/01/09 14:02:16;;;;;;;4.15;2.61;;;;;;;20.30;43.07;100636.87;;;;-48
2020/01/09 14:05:15;;;;;;;9.33;2.40;;;;;;;20.29;43.07;100633.08;;;;-51
2020/01/09 14:08:15;;;;;;;6.43;2.33;;;;;;;20.28;43.08;100629.17;;;;-46
2020/01/09 14:11:16;;;;;;;3.33;2.19;;;;;;;20.28;43.17;100625.82;;;;-47
2020/01/09 14:14:15;;;;;;;3.99;2.31;;;;;;;20.28;43.16;100624.48;;;;-47
2020/01/09 14:17:16;;;;;;;3.65;2.18;;;;;;;20.29;43.03;100621.73;;;;-47
2020/01/09 14:20:15;;;;;;;3.81;2.24;;;;;;;20.28;43.01;100625.48;;;;-55
2020/01/09 14:23:15;;;;;;;4.92;2.35;;;;;;;20.26;43.12;100622.75;;;;-57
2020/01/09 14:26:16;;;;;;;4.03;2.30;;;;;;;20.27;42.61;100624.98;;;;-51
2020/01/09 14:32:16;;;;;;;4.41;2.21;;;;;;;20.28;42.97;100620.83;;;;-45
2020/01/09 14:35:15;;;;;;;2.91;2.20;;;;;;;20.29;43.03;100619.94;;;;-44
2020/01/09 14:38:16;;;;;;;3.31;2.09;;;;;;;20.30;43.10;100621.28;;;;-48
2020/01/09 14:41:16;;;;;;;3.60;2.22;;;;;;;20.32;43.43;100622.48;;;;-50
2020/01/09 14:44:16;;;;;;;7.07;2.04;;;;;;;20.34;43.05;100616.70;;;;-49
2020/01/09 14:47:16;;;;;;;7.07;2.29;;;;;;;20.29;42.61;100612.89;;;;-52
2020/01/09 14:50:16;;;;;;;5.35;2.34;;;;;;;20.29;42.76;100604.50;;;;-47
2020/01/09 14:53:16;;;;;;;4.19;1.99;;;;;;;20.30;42.83;100605.17;;;;-44
2020/01/09 14:56:16;;;;;;;4.33;2.21;;;;;;;20.30;42.91;100598.17;;;;-45
2020/01/09 14:59:15;;;;;;;3.85;2.32;;;;;;;20.30;42.66;100595.16;;;;-48
2020/01/09 15:02:16;;;;;;;4.83;1.93;;;;;;;20.27;42.39;100591.94;;;;-47
2020/01/09 15:05:16;;;;;;;3.15;2.01;;;;;;;20.26;42.25;100588.27;;;;-47
2020/01/09 15:08:16;;;;;;;3.52;1.80;;;;;;;20.24;42.21;100586.67;;;;-47
2020/01/09 15:11:16;;;;;;;2.54;1.95;;;;;;;20.24;42.09;100579.42;;;;-47
2020/01/09 15:14:15;;;;;;;2.92;2.08;;;;;;;20.22;42.07;100576.19;;;;-47
2020/01/09 15:17:16;;;;;;;2.54;1.89;;;;;;;20.21;42.06;100575.24;;;;-47
2020/01/09 15:20:16;;;;;;;4.03;1.95;;;;;;;20.21;42.06;100570.27;;;;-47
2020/01/09 15:23:16;;;;;;;2.07;1.81;;;;;;;20.21;41.96;100574.03;;;;-47
2020/01/09 15:26:16;;;;;;;2.95;1.89;;;;;;;20.20;41.90;100577.17;;;;-47
2020/01/09 15:29:16;;;;;;;5.28;1.94;;;;;;;20.19;41.98;100576.40;;;;-47
2020/01/09 15:32:16;;;;;;;3.10;1.95;;;;;;;20.19;41.89;100575.55;;;;-47
2020/01/09 15:35:16;;;;;;;3.58;1.97;;;;;;;20.19;41.91;100575.22;;;;-47
2020/01/09 15:38:16;;;;;;;3.06;1.86;;;;;;;20.18;41.86;100570.31;;;;-47
2020/01/09 15:41:16;;;;;;;2.10;1.84;;;;;;;20.17;41.92;100569.88;;;;-47
2020/01/09 15:44:15;;;;;;;2.17;1.90;;;;;;;20.17;41.88;100573.56;;;;-47
2020/01/09 15:47:16;;;;;;;3.23;1.70;;;;;;;20.16;41.95;100573.85;;;;-47
2020/01/09 15:50:16;;;;;;;2.43;1.68;;;;;;;20.16;41.85;100574.42;;;;-47
2020/01/09 15:53:16;;;;;;;2.37;1.71;;;;;;;20.16;41.89;100576.50;;;;-47
2020/01/09 15:56:15;;;;;;;3.43;1.82;;;;;;;20.14;41.82;100574.44;;;;-47
2020/01/09 15:59:16;;;;;;;1.93;1.70;;;;;;;20.16;41.83;100574.75;;;;-48
2020/01/09 16:02:16;;;;;;;4.85;2.05;;;;;;;20.15;41.88;100581.09;;;;-51
2020/01/09 16:05:16;;;;;;;2.20;1.81;;;;;;;20.14;41.87;100571.42;;;;-51
2020/01/09 16:08:16;;;;;;;3.65;1.70;;;;;;;20.14;41.77;100574.27;;;;-51
2020/01/09 16:11:16;;;;;;;2.79;1.85;;;;;;;20.13;41.82;100569.42;;;;-51
2020/01/09 16:14:16;;;;;;;3.83;1.68;;;;;;;20.12;41.77;100567.97;;;;-51
2020/01/09 16:17:16;;;;;;;3.41;1.75;;;;;;;20.12;41.83;100558.64;;;;-51
2020/01/09 16:20:16;;;;;;;2.99;1.75;;;;;;;20.12;41.75;100553.29;;;;-49
2020/01/09 16:23:16;;;;;;;3.53;1.86;;;;;;;20.13;42.11;100546.95;;;;-49
2020/01/09 16:26:16;;;;;;;3.10;1.85;;;;;;;20.18;42.28;100543.55;;;;-52
2020/01/09 16:29:16;;;;;;;5.61;1.77;;;;;;;20.18;42.43;100535.50;;;;-48
2020/01/09 16:32:15;;;;;;;5.40;1.86;;;;;;;20.20;42.55;100536.25;;;;-49
2020/01/09 16:35:16;;;;;;;3.84;1.99;;;;;;;20.21;42.75;100532.88;;;;-43
2020/01/09 16:38:16;;;;;;;3.09;1.92;;;;;;;20.24;42.64;100526.74;;;;-42
2020/01/09 16:41:16;;;;;;;3.64;1.81;;;;;;;20.27;42.64;100523.69;;;;-48
2020/01/09 16:44:15;;;;;;;2.27;1.83;;;;;;;20.31;42.76;100529.08;;;;-46
2020/01/09 16:47:16;;;;;;;4.83;1.88;;;;;;;20.34;42.64;100530.08;;;;-49
2020/01/09 16:50:16;;;;;;;2.28;1.73;;;;;;;20.34;42.58;100528.23;;;;-51
2020/01/09 16:53:16;;;;;;;5.69;1.94;;;;;;;20.43;43.06;100533.70;;;;-51
2020/01/09 16:56:16;;;;;;;4.92;1.93;;;;;;;20.47;43.60;100537.97;;;;-49
2020/01/09 16:59:15;;;;;;;4.01;3.05;;;;;;;20.30;42.62;100536.89;;;;-56